createdAt,value
2018-10-21T00:01:25.999Z,70.80
2018-10-21T00:03:59.809Z,71.40
2018-10-21T00:06:33.708Z,70.80
2018-10-21T00:09:10.391Z,71.10
2018-10-21T00:11:44.225Z,71.70
2018-10-21T00:14:17.964Z,71.70
2018-10-21T00:16:51.823Z,71.50
2018-10-21T00:19:26.634Z,71.80
2018-10-21T00:22:00.523Z,71.60
2018-10-21T00:24:34.288Z,71.70
2018-10-21T00:27:08.370Z,71.60
2018-10-21T00:29:42.142Z,71.70
2018-10-21T00:32:15.929Z,71.70
2018-10-21T00:34:49.646Z,71.60
2018-10-21T00:37:23.511Z,71.70
2018-10-21T00:39:57.237Z,72.20
2018-10-21T00:42:31.046Z,72.40
2018-10-21T00:45:05.712Z,73.50
2018-10-21T00:47:46.020Z,72.70
2018-10-21T00:50:19.928Z,72.50
2018-10-21T00:52:53.797Z,72.40
2018-10-21T00:55:33.930Z,72.40
2018-10-21T00:58:07.779Z,72.30
2018-10-21T01:00:41.639Z,72.40
2018-10-21T01:03:21.745Z,72.60
2018-10-21T01:05:55.683Z,72.70
2018-10-21T01:08:29.483Z,72.80
2018-10-21T01:11:03.120Z,72.70
2018-10-21T01:13:36.973Z,72.50
2018-10-21T01:16:10.923Z,72.70
2018-10-21T01:18:44.848Z,72.80
2018-10-21T01:21:18.785Z,73.40
2018-10-21T01:23:52.861Z,72.50
2018-10-21T01:26:33.037Z,72.60
2018-10-21T01:29:06.839Z,72.50
2018-10-21T01:31:40.566Z,72.50
2018-10-21T01:34:14.397Z,72.50
2018-10-21T01:36:48.283Z,72.60
2018-10-21T01:39:30.453Z,73.00
2018-10-21T01:44:44.872Z,72.90
2018-10-21T01:47:18.544Z,72.90
2018-10-21T01:49:52.306Z,73.10
2018-10-21T01:52:26.141Z,73.30
2018-10-21T01:54:59.838Z,73.20
2018-10-21T01:57:33.619Z,73.40
2018-10-21T02:00:07.372Z,73.80
2018-10-21T02:02:41.028Z,73.70
2018-10-21T02:05:14.715Z,73.70
2018-10-21T02:07:48.431Z,73.60
2018-10-21T02:10:22.473Z,73.60
2018-10-21T02:12:56.316Z,73.60
2018-10-21T02:15:30.249Z,73.50
2018-10-21T02:18:04.230Z,73.50
2018-10-21T02:20:38.302Z,73.50
2018-10-21T02:23:12.048Z,73.40
2018-10-21T02:25:46.043Z,73.40
2018-10-21T02:28:19.912Z,73.30
2018-10-21T02:30:53.917Z,73.70
2018-10-21T02:33:27.947Z,74.20
2018-10-21T02:36:01.764Z,74.50
2018-10-21T02:38:35.731Z,74.80
2018-10-21T02:41:54.120Z,74.90
2018-10-21T02:44:27.816Z,75.10
2018-10-21T02:47:08.179Z,74.90
2018-10-21T02:49:41.885Z,75.40
2018-10-21T02:52:15.670Z,74.70
2018-10-21T02:54:50.300Z,74.60
2018-10-21T02:57:30.504Z,74.30
2018-10-21T03:00:04.403Z,74.00
2018-10-21T03:02:37.991Z,74.00
2018-10-21T03:05:12.619Z,73.90
2018-10-21T03:07:46.396Z,73.80
2018-10-21T03:10:20.123Z,73.90
2018-10-21T03:12:53.926Z,73.90
2018-10-21T03:15:27.642Z,74.40
2018-10-21T03:18:01.464Z,73.60
2018-10-21T03:20:35.273Z,73.50
2018-10-21T03:23:09.154Z,73.80
2018-10-21T03:25:44.300Z,73.80
2018-10-21T03:28:18.126Z,74.20
2018-10-21T03:30:51.984Z,74.20
2018-10-21T03:33:32.656Z,74.40
2018-10-21T03:36:06.654Z,74.50
2018-10-21T03:38:46.780Z,74.40
2018-10-21T03:41:20.492Z,74.30
2018-10-21T03:43:54.343Z,74.20
2018-10-21T03:46:27.891Z,74.10
2018-10-21T03:49:01.799Z,74.00
2018-10-21T03:51:35.342Z,73.90
2018-10-21T03:54:09.163Z,73.90
2018-10-21T03:56:42.808Z,73.80
2018-10-21T03:59:16.519Z,74.00
2018-10-21T04:01:50.723Z,74.10
2018-10-21T04:04:24.429Z,74.00
2018-10-21T04:06:58.027Z,73.90
2018-10-21T04:09:32.624Z,73.90
2018-10-21T04:12:06.199Z,73.90
2018-10-21T04:14:40.033Z,74.00
2018-10-21T04:17:13.775Z,74.00
2018-10-21T04:19:47.402Z,74.00
2018-10-21T04:22:21.186Z,73.90
2018-10-21T04:24:55.092Z,73.80
2018-10-21T04:27:28.878Z,73.80
2018-10-21T04:30:02.665Z,73.80
2018-10-21T04:32:43.658Z,73.70
2018-10-21T04:35:23.957Z,73.70
2018-10-21T04:40:14.054Z,73.70
2018-10-21T04:42:48.006Z,73.80
2018-10-21T04:45:22.326Z,73.50
2018-10-21T04:47:56.756Z,73.20
2018-10-21T04:50:30.808Z,73.80
2018-10-21T04:53:04.858Z,73.60
2018-10-21T04:55:45.057Z,73.80
2018-10-21T04:58:18.779Z,73.90
2018-10-21T05:00:52.619Z,73.90
2018-10-21T05:03:27.457Z,73.90
2018-10-21T05:06:02.000Z,73.80
2018-10-21T05:08:35.675Z,74.10
2018-10-21T05:11:10.456Z,73.80
2018-10-21T05:13:44.291Z,74.10
2018-10-21T05:16:18.833Z,74.10
2018-10-21T05:18:52.652Z,74.10
2018-10-21T05:21:26.437Z,74.10
2018-10-21T05:24:00.158Z,74.00
2018-10-21T05:26:40.667Z,74.00
2018-10-21T05:29:15.258Z,73.90
2018-10-21T05:31:48.854Z,74.20
2018-10-21T05:34:22.380Z,73.90
2018-10-21T05:36:56.300Z,74.00
2018-10-21T05:39:31.026Z,74.00
2018-10-21T05:42:04.906Z,74.00
2018-10-21T05:44:39.865Z,74.00
2018-10-21T05:47:13.730Z,73.90
2018-10-21T05:49:47.381Z,73.90
2018-10-21T05:52:21.295Z,74.00
2018-10-21T05:55:01.487Z,74.00
2018-10-21T05:57:35.539Z,74.10
2018-10-21T06:00:11.679Z,74.10
2018-10-21T06:02:46.216Z,74.20
2018-10-21T06:05:34.196Z,74.20
2018-10-21T06:08:09.021Z,74.30
2018-10-21T06:10:43.206Z,74.30
2018-10-21T06:13:16.952Z,74.30
2018-10-21T06:15:50.695Z,74.40
2018-10-21T06:18:26.419Z,74.20
2018-10-21T06:21:06.277Z,74.30
2018-10-21T06:23:39.929Z,74.30
2018-10-21T06:26:13.471Z,74.50
2018-10-21T06:28:53.604Z,74.60
2018-10-21T06:31:28.380Z,74.60
2018-10-21T06:34:08.377Z,74.60
2018-10-21T06:36:43.161Z,74.90
2018-10-21T06:39:16.946Z,74.70
2018-10-21T06:41:51.342Z,74.70
2018-10-21T06:44:31.251Z,74.70
2018-10-21T06:47:04.979Z,74.60
2018-10-21T06:49:38.864Z,74.50
2018-10-21T06:52:18.967Z,74.50
2018-10-21T06:54:58.821Z,74.40
2018-10-21T06:57:32.741Z,74.20
2018-10-21T07:00:09.773Z,74.40
2018-10-21T07:02:43.781Z,74.20
2018-10-21T07:05:29.282Z,74.10
2018-10-21T07:08:03.027Z,74.20
2018-10-21T07:12:06.358Z,74.20
2018-10-21T07:14:39.934Z,74.30
2018-10-21T07:17:13.762Z,73.90
2018-10-21T07:19:47.686Z,74.80
2018-10-21T07:22:27.970Z,74.10
2018-10-21T07:25:09.214Z,74.10
2018-10-21T07:27:42.810Z,74.00
2018-10-21T07:30:16.891Z,73.80
2018-10-21T07:32:56.802Z,73.90
2018-10-21T07:35:30.643Z,73.90
2018-10-21T07:38:04.351Z,73.80
2018-10-21T07:40:38.321Z,73.90
2018-10-21T07:43:18.283Z,73.90
2018-10-21T07:45:52.178Z,73.00
2018-10-21T07:48:26.071Z,73.20
2018-10-21T07:50:59.798Z,73.60
2018-10-21T07:53:33.362Z,73.50
2018-10-21T07:56:13.447Z,73.30
2018-10-21T07:58:48.181Z,73.10
2018-10-21T08:01:22.145Z,72.90
2018-10-21T08:03:56.018Z,73.20
2018-10-21T08:06:41.199Z,72.80
2018-10-21T08:09:14.740Z,72.60
2018-10-21T08:11:48.622Z,72.40
2018-10-21T08:14:22.343Z,72.60
2018-10-21T08:16:57.050Z,72.00
2018-10-21T08:19:31.034Z,72.30
2018-10-21T08:22:05.072Z,72.40
2018-10-21T08:24:38.805Z,72.50
2018-10-21T08:27:18.992Z,71.80
2018-10-21T08:29:52.644Z,71.70
2018-10-21T08:32:26.650Z,71.70
2018-10-21T08:34:54.419Z,71.70
2018-10-21T08:37:28.344Z,71.30
2018-10-21T08:40:08.559Z,71.20
2018-10-21T08:42:42.334Z,70.70
2018-10-21T08:45:16.232Z,70.80
2018-10-21T08:47:50.171Z,70.50
2018-10-21T08:50:24.684Z,70.60
2018-10-21T08:52:59.259Z,70.80
2018-10-21T08:55:32.910Z,70.90
2018-10-21T08:58:06.707Z,70.40
2018-10-21T09:00:40.368Z,70.40
2018-10-21T09:03:15.049Z,71.00
2018-10-21T09:05:49.574Z,70.90
2018-10-21T09:08:23.109Z,69.90
2018-10-21T09:11:03.194Z,70.10
2018-10-21T09:13:36.913Z,69.90
2018-10-21T09:16:10.609Z,70.00
2018-10-21T09:18:44.164Z,69.20
2018-10-21T09:21:19.831Z,69.70
2018-10-21T09:23:53.688Z,69.80
2018-10-21T09:26:28.161Z,68.80
2018-10-21T09:29:02.102Z,69.00
2018-10-21T09:31:35.763Z,68.90
2018-10-21T09:34:10.483Z,69.10
2018-10-21T09:36:44.098Z,68.40
2018-10-21T09:39:18.834Z,68.20
2018-10-21T09:41:52.436Z,68.00
2018-10-21T09:44:26.179Z,67.80
2018-10-21T09:47:07.696Z,66.90
2018-10-21T09:49:41.868Z,67.30
2018-10-21T09:52:15.479Z,67.40
2018-10-21T09:54:55.458Z,67.40
2018-10-21T09:57:35.551Z,66.00
2018-10-21T10:00:21.578Z,65.20
2018-10-21T10:03:01.046Z,64.80
2018-10-21T10:05:34.673Z,64.80
2018-10-21T10:08:08.270Z,64.60
2018-10-21T10:10:42.028Z,63.90
2018-10-21T10:13:16.790Z,64.00
2018-10-21T10:15:50.596Z,63.90
2018-10-21T10:18:24.584Z,63.60
2018-10-21T10:21:05.147Z,63.20
2018-10-21T10:23:32.917Z,64.50
2018-10-21T10:26:01.136Z,63.50
2018-10-21T10:28:35.716Z,63.60
2018-10-21T10:31:09.733Z,63.50
2018-10-21T10:33:43.650Z,61.20
2018-10-21T10:36:17.694Z,61.60
2018-10-21T10:38:52.498Z,61.50
2018-10-21T10:41:26.320Z,61.50
2018-10-21T10:44:00.118Z,60.60
2018-10-21T10:46:33.919Z,61.00
2018-10-21T10:49:07.704Z,60.70
2018-10-21T10:51:42.561Z,60.60
2018-10-21T10:54:22.849Z,61.10
2018-10-21T10:57:10.021Z,59.90
2018-10-21T10:59:44.871Z,59.70
2018-10-21T11:02:18.601Z,59.30
2018-10-21T11:04:52.335Z,58.80
2018-10-21T11:07:26.145Z,59.10
2018-10-21T11:10:08.020Z,58.60
2018-10-21T11:12:41.613Z,58.70
2018-10-21T11:15:15.375Z,59.10
2018-10-21T11:17:49.094Z,58.80
2018-10-21T11:20:29.097Z,59.10
2018-10-21T11:23:09.277Z,59.70
2018-10-21T11:25:49.456Z,60.50
2018-10-21T11:28:29.441Z,60.10
2018-10-21T11:31:09.496Z,58.90
2018-10-21T11:33:49.663Z,58.80
2018-10-21T11:36:23.419Z,58.20
2018-10-21T11:38:57.246Z,58.00
2018-10-21T11:41:31.307Z,57.20
2018-10-21T11:44:11.496Z,56.80
2018-10-21T11:46:45.228Z,57.00
2018-10-21T11:49:25.400Z,55.80
2018-10-21T11:51:59.239Z,56.10
2018-10-21T11:54:32.920Z,55.70
2018-10-21T11:57:06.591Z,56.30
2018-10-21T11:59:40.432Z,55.50
2018-10-21T12:02:20.503Z,55.20
2018-10-21T12:05:00.641Z,55.60
2018-10-21T12:07:34.407Z,55.40
2018-10-21T12:10:08.493Z,55.40
2018-10-21T12:12:42.174Z,55.30
2018-10-21T12:15:17.820Z,56.00
2018-10-21T12:17:53.779Z,55.60
2018-10-21T12:20:33.817Z,54.70
2018-10-21T12:23:13.967Z,54.90
2018-10-21T12:25:50.069Z,54.30
2018-10-21T12:28:23.851Z,55.00
2018-10-21T12:30:58.699Z,55.40
2018-10-21T12:33:38.089Z,55.00
2018-10-21T12:36:12.733Z,54.60
2018-10-21T12:38:46.440Z,54.80
2018-10-21T12:41:20.377Z,55.10
2018-10-21T12:43:54.200Z,56.00
2018-10-21T12:46:27.757Z,55.40
2018-10-21T12:49:01.968Z,54.40
2018-10-21T12:51:35.757Z,55.40
2018-10-21T12:54:09.613Z,54.10
2018-10-21T12:56:43.588Z,54.60
2018-10-21T12:59:23.736Z,54.60
2018-10-21T13:01:57.620Z,54.70
2018-10-21T13:04:31.485Z,53.80
2018-10-21T13:07:05.544Z,54.10
2018-10-21T13:09:45.410Z,54.30
2018-10-21T13:12:20.141Z,54.40
2018-10-21T13:14:58.162Z,53.70
2018-10-21T13:17:32.791Z,53.50
2018-10-21T13:20:13.163Z,53.80
2018-10-21T13:22:47.011Z,53.20
2018-10-21T13:25:21.495Z,53.80
2018-10-21T13:28:01.897Z,53.90
2018-10-21T13:30:35.582Z,53.50
2018-10-21T13:33:15.762Z,53.20
2018-10-21T13:35:54.703Z,53.50
2018-10-21T13:38:28.502Z,54.50
2018-10-21T13:41:08.608Z,54.20
2018-10-21T13:43:42.359Z,53.50
2018-10-21T13:46:16.135Z,52.80
2018-10-21T13:48:56.203Z,53.80
2018-10-21T13:51:29.928Z,54.80
2018-10-21T13:54:10.113Z,53.00
2018-10-21T13:56:44.037Z,52.90
2018-10-21T13:59:24.123Z,51.70
2018-10-21T14:01:57.961Z,52.30
2018-10-21T14:04:32.615Z,48.50
2018-10-21T14:07:06.572Z,49.50
2018-10-21T14:09:46.639Z,47.90
2018-10-21T14:12:27.007Z,49.10
2018-10-21T14:15:00.818Z,46.20
2018-10-21T14:17:41.513Z,45.30
2018-10-21T14:20:15.324Z,45.60
2018-10-21T14:22:55.458Z,45.30
2018-10-21T14:25:29.119Z,46.10
2018-10-21T14:28:02.921Z,46.80
2018-10-21T14:30:36.895Z,47.50
2018-10-21T14:33:10.583Z,47.80
2018-10-21T14:35:44.484Z,48.70
2018-10-21T14:38:19.287Z,49.30
2018-10-21T14:40:59.370Z,50.10
2018-10-21T14:43:33.339Z,50.60
2018-10-21T14:46:13.586Z,51.20
2018-10-21T14:48:53.502Z,51.90
2018-10-21T14:51:28.110Z,52.00
2018-10-21T14:54:01.818Z,52.20
2018-10-21T14:56:35.720Z,52.30
2018-10-21T14:59:15.920Z,52.30
2018-10-21T15:01:49.745Z,52.40
2018-10-21T15:04:29.915Z,51.60
2018-10-21T15:07:04.955Z,51.90
2018-10-21T15:09:39.046Z,52.10
2018-10-21T15:12:12.689Z,52.30
2018-10-21T15:14:53.198Z,52.30
2018-10-21T15:17:27.784Z,52.50
2018-10-21T15:20:01.743Z,52.50
2018-10-21T15:22:35.499Z,52.40
2018-10-21T15:25:15.770Z,52.70
2018-10-21T15:27:49.661Z,52.70
2018-10-21T15:30:23.403Z,53.10
2018-10-21T15:32:59.091Z,53.30
2018-10-21T15:35:39.136Z,53.10
2018-10-21T15:38:13.375Z,53.00
2018-10-21T15:40:48.021Z,53.20
2018-10-21T15:43:21.840Z,53.50
2018-10-21T15:45:55.669Z,53.70
2018-10-21T15:48:29.355Z,54.30
2018-10-21T15:51:09.547Z,54.60
2018-10-21T15:53:49.669Z,54.90
2018-10-21T15:56:29.668Z,55.00
2018-10-21T15:59:04.499Z,54.80
2018-10-21T16:01:38.412Z,55.00
2018-10-21T16:04:12.060Z,55.40
2018-10-21T16:06:52.103Z,55.60
2018-10-21T16:09:26.819Z,55.20
2018-10-21T16:12:00.429Z,55.20
2018-10-21T16:14:40.530Z,55.20
2018-10-21T16:17:14.283Z,55.50
2018-10-21T16:19:49.145Z,55.80
2018-10-21T16:22:22.787Z,55.80
2018-10-21T16:25:03.038Z,55.80
2018-10-21T16:27:36.835Z,55.90
2018-10-21T16:30:13.237Z,55.80
2018-10-21T16:32:53.183Z,55.80
2018-10-21T16:35:26.988Z,56.00
2018-10-21T16:38:00.603Z,55.90
2018-10-21T16:40:40.760Z,56.00
2018-10-21T16:43:14.614Z,56.10
2018-10-21T16:45:48.201Z,56.30
2018-10-21T16:48:22.666Z,56.60
2018-10-21T16:50:56.496Z,56.80
2018-10-21T16:53:36.454Z,57.20
2018-10-21T16:56:10.242Z,57.50
2018-10-21T16:58:44.013Z,57.40
2018-10-21T17:01:24.469Z,57.40
2018-10-21T17:03:58.352Z,57.40
2018-10-21T17:06:32.127Z,58.10
2018-10-21T17:09:09.675Z,57.50
2018-10-21T17:11:43.973Z,57.60
2018-10-21T17:14:24.112Z,57.60
2018-10-21T17:16:57.735Z,57.70
2018-10-21T17:19:31.498Z,57.80
2018-10-21T17:22:05.042Z,58.00
2018-10-21T17:24:38.646Z,57.90
2018-10-21T17:27:12.260Z,58.60
2018-10-21T17:29:52.449Z,58.20
2018-10-21T17:32:26.258Z,58.30
2018-10-21T17:35:01.175Z,58.40
2018-10-21T17:37:41.338Z,58.60
2018-10-21T17:40:15.126Z,58.70
2018-10-21T17:42:48.882Z,58.70
2018-10-21T17:45:22.616Z,58.80
2018-10-21T17:47:56.520Z,58.90
2018-10-21T17:50:30.388Z,58.80
2018-10-21T17:53:05.018Z,58.90
2018-10-21T17:55:38.968Z,59.00
2018-10-21T17:58:18.944Z,59.40
2018-10-21T18:00:59.018Z,59.10
2018-10-21T18:03:32.798Z,59.20
2018-10-21T18:06:06.686Z,59.30
2018-10-21T18:08:41.349Z,59.40
2018-10-21T18:11:21.422Z,59.40
2018-10-21T18:13:55.309Z,59.00
2018-10-21T18:16:28.946Z,59.50
2018-10-21T18:19:04.396Z,59.50
2018-10-21T18:21:44.526Z,59.60
2018-10-21T18:24:19.220Z,59.70
2018-10-21T18:26:52.945Z,59.70
2018-10-21T18:29:26.506Z,59.70
2018-10-21T18:31:59.950Z,59.70
2018-10-21T18:34:40.209Z,60.40
2018-10-21T18:37:13.996Z,59.70
2018-10-21T18:39:47.606Z,59.40
2018-10-21T18:42:27.831Z,59.70
2018-10-21T18:45:02.388Z,59.90
2018-10-21T18:47:37.212Z,60.10
2018-10-21T18:50:12.151Z,60.30
2018-10-21T18:52:45.737Z,60.50
2018-10-21T18:55:20.644Z,60.80
2018-10-21T18:57:54.370Z,60.90
2018-10-21T19:00:28.156Z,60.80
2018-10-21T19:03:08.337Z,60.80
2018-10-21T19:05:41.938Z,61.60
2018-10-21T19:08:15.566Z,60.80
2018-10-21T19:10:49.189Z,60.80
2018-10-21T19:13:22.932Z,61.00
2018-10-21T19:16:03.076Z,61.00
2018-10-21T19:18:36.685Z,61.30
2018-10-21T19:21:11.305Z,61.30
2018-10-21T19:23:45.235Z,61.80
2018-10-21T19:26:25.353Z,62.20
2018-10-21T19:29:05.410Z,62.10
2018-10-21T19:31:40.082Z,62.10
2018-10-21T19:34:13.806Z,62.30
2018-10-21T19:36:53.845Z,62.30
2018-10-21T19:39:28.570Z,62.40
2018-10-21T19:42:02.402Z,62.50
2018-10-21T19:44:36.119Z,62.60
2018-10-21T19:47:16.108Z,63.10
2018-10-21T19:49:49.594Z,63.30
2018-10-21T19:52:23.112Z,63.40
2018-10-21T19:54:57.000Z,63.80
2018-10-21T19:57:36.894Z,64.00
2018-10-21T20:00:17.177Z,64.10
2018-10-21T20:02:57.244Z,64.00
2018-10-21T20:05:37.190Z,64.00
2018-10-21T20:08:10.970Z,64.10
2018-10-21T20:10:44.529Z,64.30
2018-10-21T20:13:18.384Z,64.50
2018-10-21T20:15:58.496Z,64.80
2018-10-21T20:18:31.992Z,65.40
2018-10-21T20:21:05.705Z,64.80
2018-10-21T20:23:39.282Z,64.80
2018-10-21T20:26:13.171Z,64.80
2018-10-21T20:28:47.094Z,64.90
2018-10-21T20:31:20.804Z,64.90
2018-10-21T20:33:54.356Z,65.00
2018-10-21T20:36:28.034Z,65.00
2018-10-21T20:39:01.782Z,65.20
2018-10-21T20:41:35.474Z,65.50
2018-10-21T20:44:15.586Z,65.30
2018-10-21T20:46:49.224Z,65.20
2018-10-21T20:49:23.058Z,65.20
2018-10-21T20:52:03.183Z,65.40
2018-10-21T20:54:43.372Z,65.60
2018-10-21T20:57:23.443Z,65.60
2018-10-21T20:59:57.278Z,65.70
2018-10-21T21:02:32.009Z,65.80
2018-10-21T21:05:11.911Z,65.90
2018-10-21T21:07:45.542Z,65.90
2018-10-21T21:10:19.263Z,66.00
2018-10-21T21:12:52.968Z,66.00
2018-10-21T21:15:32.912Z,65.90
2018-10-21T21:18:06.632Z,65.80
2018-10-21T21:20:41.307Z,66.00
2018-10-21T21:23:14.939Z,65.90
2018-10-21T21:25:48.867Z,65.80
2018-10-21T21:28:24.543Z,65.90
2018-10-21T21:30:58.320Z,65.90
2018-10-21T21:33:32.112Z,65.80
2018-10-21T21:36:06.003Z,66.00
2018-10-21T21:38:40.498Z,66.00
2018-10-21T21:41:14.193Z,66.00
2018-10-21T21:43:47.860Z,65.90
2018-10-21T21:46:21.516Z,65.90
2018-10-21T21:49:01.639Z,65.90
2018-10-21T21:51:35.412Z,65.70
2018-10-21T21:54:10.770Z,65.70
2018-10-21T21:56:45.094Z,65.70
2018-10-21T21:59:18.813Z,65.60
2018-10-21T22:01:52.318Z,65.50
2018-10-21T22:04:32.393Z,65.60
2018-10-21T22:07:07.066Z,65.20
2018-10-21T22:09:40.826Z,65.80
2018-10-21T22:12:14.439Z,65.70
2018-10-21T22:14:48.100Z,65.80
2018-10-21T22:17:21.663Z,65.70
2018-10-21T22:19:55.367Z,66.40
2018-10-21T22:22:29.054Z,65.70
2018-10-21T22:25:02.776Z,65.30
2018-10-21T22:27:42.700Z,65.30
2018-10-21T22:30:22.708Z,65.40
2018-10-21T22:32:56.324Z,65.40
2018-10-21T22:35:30.036Z,65.30
2018-10-21T22:38:04.249Z,65.30
2018-10-21T22:40:37.836Z,65.40
2018-10-21T22:43:11.490Z,65.50
2018-10-21T22:45:45.096Z,65.70
2018-10-21T22:48:18.714Z,65.10
2018-10-21T22:50:52.281Z,65.00
2018-10-21T22:53:26.871Z,65.20
2018-10-21T22:56:00.538Z,65.20
2018-10-21T22:58:34.176Z,65.30
2018-10-21T23:01:08.975Z,65.30
2018-10-21T23:03:42.632Z,65.30
2018-10-21T23:06:16.369Z,65.30
2018-10-21T23:08:57.022Z,65.30
2018-10-21T23:11:30.599Z,65.30
2018-10-21T23:14:10.984Z,65.40
2018-10-21T23:16:44.550Z,65.50
2018-10-21T23:19:37.050Z,65.50
2018-10-21T23:22:10.672Z,65.40
2018-10-21T23:24:44.131Z,65.20
2018-10-21T23:27:18.835Z,65.20
2018-10-21T23:29:52.457Z,65.50
2018-10-21T23:32:26.002Z,65.50
2018-10-21T23:35:06.311Z,65.20
2018-10-21T23:37:39.853Z,65.00
2018-10-21T23:40:13.536Z,64.90
2018-10-21T23:42:47.214Z,64.80
2018-10-21T23:45:20.786Z,64.60
2018-10-21T23:47:54.412Z,64.60
2018-10-21T23:50:28.015Z,64.60
2018-10-21T23:53:02.776Z,64.20
2018-10-21T23:55:36.335Z,63.90
2018-10-21T23:58:10.019Z,64.20
